createdAt,value
2022-10-19T00:01:00.033Z,8.30
2022-10-19T00:06:02.134Z,9.40
2022-10-19T00:11:02.225Z,9.80
2022-10-19T00:16:02.311Z,8.80
2022-10-19T00:21:02.408Z,9.50
2022-10-19T00:26:03.529Z,7.80
2022-10-19T00:31:03.618Z,7.50
2022-10-19T00:36:02.726Z,7.10
2022-10-19T00:41:04.926Z,7.10
2022-10-19T00:46:04.015Z,10.10
2022-10-19T00:51:05.107Z,8.60
2022-10-19T00:56:06.316Z,8.40
2022-10-19T01:01:07.720Z,8.20
2022-10-19T01:06:08.968Z,7.50
2022-10-19T01:11:10.381Z,8.20
2022-10-19T01:16:11.493Z,8.80
2022-10-19T01:21:12.614Z,7.20
2022-10-19T01:26:14.101Z,7.80
2022-10-19T01:31:13.426Z,7.40
2022-10-19T01:36:15.517Z,7.30
2022-10-19T01:41:14.795Z,6.90
2022-10-19T01:46:17.096Z,7.40
2022-10-19T01:51:17.181Z,8.40
2022-10-19T01:56:16.302Z,9.10
2022-10-19T02:01:18.430Z,10.20
2022-10-19T02:06:17.779Z,10.80
2022-10-19T02:11:20.886Z,8.40
2022-10-19T02:16:24.369Z,8.00
2022-10-19T02:21:19.483Z,9.30
2022-10-19T02:26:21.602Z,10.50
2022-10-19T02:31:20.748Z,11.00
2022-10-19T02:36:21.892Z,6.50
2022-10-19T02:41:23.172Z,6.10
2022-10-19T02:46:24.283Z,8.40
2022-10-19T02:51:26.374Z,8.20
2022-10-19T02:56:25.473Z,8.80
2022-10-19T03:01:26.563Z,9.80
2022-10-19T03:06:27.656Z,7.30
2022-10-19T03:11:28.767Z,7.70
2022-10-19T03:16:30.058Z,8.90
2022-10-19T03:21:32.170Z,8.50
2022-10-19T03:26:31.261Z,9.30
2022-10-19T03:31:32.572Z,10.50
2022-10-19T03:36:33.669Z,8.30
2022-10-19T03:41:36.785Z,9.10
2022-10-19T03:46:36.876Z,8.50
2022-10-19T03:51:35.978Z,7.70
2022-10-19T03:56:38.065Z,8.20
2022-10-19T04:01:37.499Z,9.60
2022-10-19T04:06:39.685Z,8.20
2022-10-19T04:11:38.784Z,7.00
2022-10-19T04:16:40.892Z,9.30
2022-10-19T04:21:39.996Z,7.30
2022-10-19T04:26:41.092Z,7.40
2022-10-19T04:31:42.480Z,7.90
2022-10-19T04:36:43.599Z,7.60
2022-10-19T04:41:44.720Z,6.90
2022-10-19T04:46:45.819Z,7.00
2022-10-19T04:51:46.929Z,8.00
2022-10-19T04:56:49.036Z,6.70
2022-10-19T05:01:49.606Z,6.70
2022-10-19T05:06:49.670Z,8.10
2022-10-19T05:11:49.056Z,7.60
2022-10-19T05:16:51.144Z,8.90
2022-10-19T05:21:50.230Z,8.90
2022-10-19T05:26:51.337Z,10.50
2022-10-19T05:31:52.670Z,8.20
2022-10-19T05:36:53.764Z,7.10
2022-10-19T05:41:54.887Z,9.30
2022-10-19T05:46:55.987Z,8.00
2022-10-19T05:51:57.082Z,8.60
2022-10-19T05:56:58.320Z,7.80
2022-10-19T06:01:59.426Z,7.20
2022-10-19T06:07:00.553Z,6.40
2022-10-19T06:12:05.557Z,6.90
2022-10-19T06:17:02.672Z,8.00
2022-10-19T06:22:03.983Z,8.20
2022-10-19T06:27:05.094Z,8.60
2022-10-19T06:32:06.267Z,8.10
2022-10-19T06:37:08.388Z,9.40
2022-10-19T06:42:07.500Z,8.70
2022-10-19T06:47:08.601Z,8.40
2022-10-19T06:52:09.678Z,7.30
2022-10-19T06:57:11.827Z,7.90
2022-10-19T07:02:11.971Z,7.80
2022-10-19T07:07:11.188Z,7.80
2022-10-19T07:12:12.483Z,7.60
2022-10-19T07:17:13.592Z,7.90
2022-10-19T07:22:21.247Z,7.50
2022-10-19T07:27:15.604Z,7.70
2022-10-19T07:32:14.706Z,7.20
2022-10-19T07:37:15.849Z,6.90
2022-10-19T07:42:17.166Z,7.20
2022-10-19T07:47:18.401Z,7.30
2022-10-19T07:52:19.493Z,6.90
2022-10-19T07:57:20.806Z,8.10
2022-10-19T08:02:25.009Z,6.30
2022-10-19T08:07:23.111Z,6.70
2022-10-19T08:12:22.438Z,7.10
2022-10-19T08:17:36.859Z,7.70
2022-10-19T08:22:23.982Z,7.90
2022-10-19T08:27:25.306Z,6.90
2022-10-19T08:32:26.411Z,6.90
2022-10-19T08:37:40.659Z,6.60
2022-10-19T08:42:27.714Z,4.90
2022-10-19T08:47:28.835Z,5.50
2022-10-19T08:52:34.198Z,6.00
2022-10-19T08:57:29.763Z,4.90
2022-10-19T09:02:31.380Z,5.40
2022-10-19T09:07:31.594Z,5.70
2022-10-19T09:12:30.866Z,5.90
2022-10-19T09:17:33.981Z,5.00
2022-10-19T09:22:34.459Z,5.50
2022-10-19T09:27:34.730Z,4.40
2022-10-19T09:32:34.297Z,5.30
2022-10-19T09:37:34.593Z,5.30
2022-10-19T09:42:34.448Z,5.40
2022-10-19T09:47:35.004Z,5.10
2022-10-19T09:52:35.338Z,4.80
2022-10-19T09:57:34.690Z,4.20
2022-10-19T10:02:34.368Z,4.20
2022-10-19T10:07:34.027Z,3.60
2022-10-19T10:12:33.803Z,4.30
2022-10-19T10:17:33.308Z,4.10
2022-10-19T10:22:34.804Z,3.90
2022-10-19T10:27:34.304Z,4.50
2022-10-19T10:32:34.016Z,5.00
2022-10-19T10:37:34.527Z,5.20
2022-10-19T10:42:34.085Z,5.00
2022-10-19T10:47:34.693Z,5.10
2022-10-19T10:52:34.402Z,5.30
2022-10-19T10:57:33.801Z,5.80
2022-10-19T11:02:34.898Z,4.90
2022-10-19T11:07:37.560Z,5.20
2022-10-19T11:12:37.092Z,5.30
2022-10-19T11:17:38.346Z,4.90
2022-10-19T11:22:39.709Z,6.10
2022-10-19T11:27:41.829Z,5.60
2022-10-19T11:32:40.921Z,6.20
2022-10-19T11:37:49.535Z,6.10
2022-10-19T11:42:43.472Z,6.50
2022-10-19T11:47:42.569Z,6.70
2022-10-19T11:52:45.685Z,6.20
2022-10-19T11:57:45.786Z,5.30
2022-10-19T12:02:45.868Z,6.40
2022-10-19T12:07:44.972Z,6.30
2022-10-19T12:12:46.280Z,5.80
2022-10-19T12:17:48.378Z,6.30
2022-10-19T12:22:47.703Z,6.20
2022-10-19T12:27:48.981Z,6.80
2022-10-19T12:32:53.497Z,6.00
2022-10-19T12:37:51.478Z,6.70
2022-10-19T12:42:52.669Z,7.10
2022-10-19T12:47:53.796Z,6.80
2022-10-19T12:52:55.125Z,6.60
2022-10-19T12:57:58.235Z,7.00
2022-10-19T13:02:57.450Z,6.60
2022-10-19T13:07:59.627Z,7.80
2022-10-19T13:12:59.732Z,7.10
2022-10-19T13:17:59.146Z,7.60
2022-10-19T13:23:01.267Z,8.20
2022-10-19T13:28:01.373Z,8.00
2022-10-19T13:33:00.558Z,9.20
2022-10-19T13:38:01.654Z,8.80
2022-10-19T13:43:03.006Z,8.90
2022-10-19T13:48:04.372Z,7.20
2022-10-19T13:53:05.630Z,9.20
2022-10-19T13:58:07.000Z,8.40
2022-10-19T14:03:10.830Z,8.70
2022-10-19T14:08:08.901Z,8.30
2022-10-19T14:13:11.011Z,7.90
2022-10-19T14:18:15.242Z,10.30
2022-10-19T14:23:10.455Z,8.70
2022-10-19T14:28:11.700Z,9.20
2022-10-19T14:33:13.813Z,8.80
2022-10-19T14:38:13.095Z,7.40
2022-10-19T14:43:14.208Z,8.40
2022-10-19T14:48:15.511Z,8.20
2022-10-19T14:53:16.841Z,8.20
2022-10-19T14:58:19.002Z,8.60
2022-10-19T15:03:18.271Z,9.00
2022-10-19T15:08:19.507Z,8.60
2022-10-19T15:13:20.860Z,8.70
2022-10-19T15:18:43.991Z,8.60
2022-10-19T15:23:21.897Z,9.00
2022-10-19T15:28:23.004Z,8.80
2022-10-19T15:33:25.106Z,6.80
2022-10-19T15:38:25.188Z,8.70
2022-10-19T15:43:24.281Z,8.70
2022-10-19T15:48:25.379Z,8.40
2022-10-19T15:53:26.480Z,8.20
2022-10-19T15:58:27.818Z,7.40
2022-10-19T16:03:30.097Z,8.30
2022-10-19T16:08:29.224Z,8.80
2022-10-19T16:13:30.428Z,8.40
2022-10-19T16:18:31.513Z,8.50
2022-10-19T16:23:35.431Z,8.00
2022-10-19T16:28:34.622Z,9.20
2022-10-19T16:33:34.083Z,8.70
2022-10-19T16:38:35.246Z,13.70
2022-10-19T16:43:36.383Z,12.30
2022-10-19T16:48:37.878Z,12.10
2022-10-19T16:53:38.070Z,10.00
2022-10-19T16:58:37.190Z,9.00
2022-10-19T17:03:38.621Z,10.90
2022-10-19T17:09:02.715Z,10.70
2022-10-19T17:13:40.976Z,13.00
2022-10-19T17:18:42.131Z,9.90
2022-10-19T17:23:41.253Z,11.20
2022-10-19T17:28:42.497Z,9.70
2022-10-19T17:33:44.094Z,10.40
2022-10-19T17:38:44.534Z,9.00
2022-10-19T17:43:44.978Z,11.30
2022-10-19T17:48:45.150Z,11.10
2022-10-19T17:53:45.483Z,11.60
2022-10-19T17:58:48.822Z,11.30
2022-10-19T18:03:46.940Z,10.70
2022-10-19T18:08:46.194Z,10.80
2022-10-19T18:13:47.613Z,11.90
2022-10-19T18:18:48.234Z,11.60
2022-10-19T18:23:47.772Z,11.60
2022-10-19T18:28:49.229Z,16.60
2022-10-19T18:33:48.771Z,26.20
2022-10-19T18:38:49.239Z,12.60
2022-10-19T18:43:49.893Z,9.70
2022-10-19T18:48:49.700Z,11.40
2022-10-19T18:53:49.155Z,10.20
2022-10-19T18:58:50.629Z,11.30
2022-10-19T19:03:50.137Z,10.30
2022-10-19T19:08:53.374Z,11.70
2022-10-19T19:13:50.858Z,24.60
2022-10-19T19:18:50.337Z,11.40
2022-10-19T19:23:48.850Z,10.40
2022-10-19T19:28:51.865Z,10.20
2022-10-19T19:33:51.367Z,11.10
2022-10-19T19:38:52.850Z,9.90
2022-10-19T19:43:53.040Z,9.70
2022-10-19T19:48:52.543Z,9.90
2022-10-19T19:53:52.030Z,10.40
2022-10-19T19:58:51.548Z,10.80
2022-10-19T20:03:52.031Z,10.30
2022-10-19T20:08:51.521Z,10.20
2022-10-19T20:13:50.966Z,10.40
2022-10-19T20:18:52.545Z,11.20
2022-10-19T20:24:03.565Z,19.80
2022-10-19T20:28:53.074Z,12.80
2022-10-19T20:33:52.492Z,11.80
2022-10-19T20:38:53.781Z,13.20
2022-10-19T20:43:55.712Z,11.20
2022-10-19T20:48:56.193Z,11.10
2022-10-19T20:53:55.418Z,11.90
2022-10-19T20:58:56.717Z,15.40
2022-10-19T21:03:57.997Z,12.10
2022-10-19T21:08:59.257Z,12.60
2022-10-19T21:14:00.464Z,11.90
2022-10-19T21:19:01.983Z,11.00
2022-10-19T21:24:01.083Z,12.20
2022-10-19T21:29:03.168Z,10.70
2022-10-19T21:34:02.463Z,12.00
2022-10-19T21:39:03.690Z,13.90
2022-10-19T21:44:04.924Z,15.80
2022-10-19T21:49:06.108Z,13.90
2022-10-19T21:54:08.243Z,12.10
2022-10-19T21:59:08.416Z,13.50
2022-10-19T22:04:08.518Z,13.60
2022-10-19T22:09:07.690Z,15.00
2022-10-19T22:14:09.995Z,13.10
2022-10-19T22:19:09.081Z,12.80
2022-10-19T22:24:10.370Z,12.60
2022-10-19T22:29:11.463Z,12.20
2022-10-19T22:34:12.545Z,12.10
2022-10-19T22:39:13.636Z,11.80
2022-10-19T22:44:14.887Z,12.20
2022-10-19T22:49:17.000Z,11.80
2022-10-19T22:54:16.083Z,11.60
2022-10-19T22:59:18.184Z,11.30
2022-10-19T23:04:17.271Z,9.60
2022-10-19T23:09:18.566Z,10.60
2022-10-19T23:14:19.881Z,11.90
2022-10-19T23:19:21.983Z,10.60
2022-10-19T23:24:21.313Z,11.70
2022-10-19T23:29:22.607Z,16.10
2022-10-19T23:34:24.005Z,13.30
2022-10-19T23:39:25.210Z,12.50
2022-10-19T23:44:26.455Z,13.40
2022-10-19T23:49:27.656Z,11.60
2022-10-19T23:54:30.758Z,11.00
2022-10-19T23:59:29.873Z,11.90
